createdAt,value
2023-02-19T00:00:52.049Z,20.8
2023-02-19T00:02:08.187Z,20.8
2023-02-19T00:03:24.313Z,20.8
2023-02-19T00:04:40.453Z,20.8
2023-02-19T00:05:56.592Z,20.8
2023-02-19T00:07:12.722Z,20.8
2023-02-19T00:08:28.856Z,20.8
2023-02-19T00:09:44.985Z,20.8
2023-02-19T00:11:01.136Z,20.8
2023-02-19T00:12:17.274Z,20.8
2023-02-19T00:13:33.416Z,20.8
2023-02-19T00:14:49.544Z,20.8
2023-02-19T00:16:05.669Z,20.9
2023-02-19T00:17:21.809Z,20.8
2023-02-19T00:18:37.953Z,20.8
2023-02-19T00:19:54.079Z,20.8
2023-02-19T00:21:10.219Z,20.8
2023-02-19T00:22:26.361Z,20.8
2023-02-19T00:23:42.553Z,20.8
2023-02-19T00:24:57.777Z,20.8
2023-02-19T00:26:12.997Z,20.8
2023-02-19T00:27:28.139Z,20.8
2023-02-19T00:28:44.285Z,20.8
2023-02-19T00:30:00.403Z,20.8
2023-02-19T00:31:16.542Z,20.8
2023-02-19T00:32:32.665Z,20.8
2023-02-19T00:33:48.827Z,20.8
2023-02-19T00:35:04.963Z,20.8
2023-02-19T00:36:21.083Z,20.8
2023-02-19T00:37:37.225Z,20.8
2023-02-19T00:38:53.352Z,20.8
2023-02-19T00:40:09.502Z,20.8
2023-02-19T00:41:25.643Z,20.8
2023-02-19T00:42:41.774Z,20.8
2023-02-19T00:43:57.904Z,20.8
2023-02-19T00:45:14.038Z,20.8
2023-02-19T00:46:30.183Z,20.8
2023-02-19T00:47:46.317Z,20.8
2023-02-19T00:49:02.446Z,20.8
2023-02-19T00:50:18.583Z,20.8
2023-02-19T00:51:34.723Z,20.8
2023-02-19T00:52:50.862Z,20.8
2023-02-19T00:54:06.994Z,20.8
2023-02-19T00:55:23.137Z,20.8
2023-02-19T00:56:39.269Z,20.8
2023-02-19T00:57:55.401Z,20.8
2023-02-19T00:59:11.542Z,20.8
2023-02-19T01:00:27.675Z,20.8
2023-02-19T01:01:43.803Z,20.8
2023-02-19T01:02:59.935Z,20.8
2023-02-19T01:04:16.075Z,20.8
2023-02-19T01:05:32.214Z,20.8
2023-02-19T01:06:48.362Z,20.8
2023-02-19T01:08:04.492Z,20.8
2023-02-19T01:09:20.615Z,20.8
2023-02-19T01:10:36.745Z,20.8
2023-02-19T01:11:52.902Z,20.8
2023-02-19T01:13:09.040Z,20.8
2023-02-19T01:14:25.236Z,20.8
2023-02-19T01:15:40.469Z,20.8
2023-02-19T01:16:55.682Z,20.8
2023-02-19T01:18:11.797Z,20.8
2023-02-19T01:19:27.938Z,20.8
2023-02-19T01:20:44.065Z,20.8
2023-02-19T01:22:00.231Z,20.8
2023-02-19T01:23:16.355Z,20.8
2023-02-19T01:24:32.489Z,20.9
2023-02-19T01:25:48.621Z,20.9
2023-02-19T01:27:04.755Z,20.8
2023-02-19T01:28:20.907Z,20.8
2023-02-19T01:29:37.040Z,20.8
2023-02-19T01:30:53.161Z,20.8
2023-02-19T01:32:09.305Z,20.8
2023-02-19T01:33:25.434Z,20.8
2023-02-19T01:34:41.574Z,20.8
2023-02-19T01:35:57.704Z,20.8
2023-02-19T01:37:13.847Z,20.8
2023-02-19T01:38:29.989Z,20.8
2023-02-19T01:39:46.118Z,20.8
2023-02-19T01:41:02.255Z,20.8
2023-02-19T01:42:18.399Z,20.8
2023-02-19T01:43:34.517Z,20.8
2023-02-19T01:44:50.655Z,20.9
2023-02-19T01:46:06.783Z,20.8
2023-02-19T01:47:22.931Z,20.8
2023-02-19T01:48:39.137Z,20.9
2023-02-19T01:49:54.399Z,20.8
2023-02-19T01:51:09.596Z,20.8
2023-02-19T01:52:25.739Z,20.8
2023-02-19T01:53:41.859Z,20.8
2023-02-19T01:54:57.989Z,20.8
2023-02-19T01:56:14.140Z,20.8
2023-02-19T01:57:30.281Z,20.8
2023-02-19T01:58:46.417Z,20.8
2023-02-19T02:00:02.549Z,20.8
2023-02-19T02:01:18.684Z,20.8
2023-02-19T02:02:34.806Z,20.8
2023-02-19T02:03:50.958Z,20.8
2023-02-19T02:05:07.084Z,20.8
2023-02-19T02:06:23.214Z,20.8
2023-02-19T02:07:39.356Z,20.8
2023-02-19T02:08:55.491Z,20.8
2023-02-19T02:10:11.638Z,20.8
2023-02-19T02:11:27.776Z,20.8
2023-02-19T02:12:43.904Z,20.9
2023-02-19T02:14:00.045Z,20.9
2023-02-19T02:15:16.177Z,20.8
2023-02-19T02:16:32.308Z,20.9
2023-02-19T02:17:48.449Z,20.9
2023-02-19T02:19:04.575Z,20.9
2023-02-19T02:20:20.716Z,20.9
2023-02-19T02:21:36.855Z,20.9
2023-02-19T02:22:53.048Z,20.8
2023-02-19T02:24:08.293Z,20.9
2023-02-19T02:25:23.499Z,20.8
2023-02-19T02:26:39.635Z,20.9
2023-02-19T02:27:55.783Z,20.9
2023-02-19T02:29:11.919Z,20.9
2023-02-19T02:30:28.041Z,20.9
2023-02-19T02:31:44.185Z,20.9
2023-02-19T02:33:00.333Z,20.9
2023-02-19T02:34:16.461Z,20.9
2023-02-19T02:35:32.583Z,20.9
2023-02-19T02:36:48.721Z,20.9
2023-02-19T02:38:04.850Z,20.9
2023-02-19T02:39:20.994Z,20.9
2023-02-19T02:40:37.139Z,20.9
2023-02-19T02:41:53.277Z,20.9
2023-02-19T02:43:09.407Z,20.9
2023-02-19T02:44:25.534Z,20.8
2023-02-19T02:45:41.674Z,20.8
2023-02-19T02:46:57.825Z,20.9
2023-02-19T02:48:13.953Z,20.9
2023-02-19T02:49:30.091Z,20.8
2023-02-19T02:50:46.212Z,20.8
2023-02-19T02:52:02.373Z,20.8
2023-02-19T02:53:18.494Z,20.8
2023-02-19T02:54:34.631Z,20.8
2023-02-19T02:55:50.768Z,20.8
2023-02-19T02:57:06.964Z,20.8
2023-02-19T02:58:22.203Z,20.8
2023-02-19T02:59:38.382Z,20.8
2023-02-19T03:00:53.587Z,20.8
2023-02-19T03:02:09.741Z,20.8
2023-02-19T03:03:25.861Z,20.8
2023-02-19T03:04:41.998Z,20.8
2023-02-19T03:05:58.135Z,20.8
2023-02-19T03:07:14.261Z,20.8
2023-02-19T03:08:30.417Z,20.8
2023-02-19T03:09:46.540Z,20.8
2023-02-19T03:11:02.686Z,20.8
2023-02-19T03:12:18.808Z,20.8
2023-02-19T03:13:34.938Z,20.8
2023-02-19T03:14:51.096Z,20.8
2023-02-19T03:16:07.223Z,20.8
2023-02-19T03:17:23.366Z,20.8
2023-02-19T03:18:39.491Z,20.8
2023-02-19T03:19:55.620Z,20.7
2023-02-19T03:21:11.763Z,20.7
2023-02-19T03:22:27.916Z,20.7
2023-02-19T03:23:44.046Z,20.7
2023-02-19T03:25:00.177Z,20.7
2023-02-19T03:26:16.302Z,20.7
2023-02-19T03:27:32.458Z,20.7
2023-02-19T03:28:48.585Z,20.7
2023-02-19T03:30:04.724Z,20.7
2023-02-19T03:31:20.849Z,20.7
2023-02-19T03:32:37.044Z,20.7
2023-02-19T03:33:52.287Z,20.7
2023-02-19T03:35:07.491Z,20.7
2023-02-19T03:36:22.633Z,20.7
2023-02-19T03:37:38.782Z,20.7
2023-02-19T03:38:54.900Z,20.7
2023-02-19T03:40:11.043Z,20.7
2023-02-19T03:41:27.165Z,20.7
2023-02-19T03:42:43.317Z,20.7
2023-02-19T03:43:59.457Z,20.7
2023-02-19T03:45:15.593Z,20.7
2023-02-19T03:46:31.719Z,20.7
2023-02-19T03:47:47.855Z,20.7
2023-02-19T03:49:03.997Z,20.7
2023-02-19T03:50:20.123Z,20.7
2023-02-19T03:51:36.264Z,20.7
2023-02-19T03:52:52.408Z,20.7
2023-02-19T03:54:08.532Z,20.7
2023-02-19T03:55:24.688Z,20.7
2023-02-19T03:56:40.821Z,20.7
2023-02-19T03:57:56.949Z,20.7
2023-02-19T03:59:13.074Z,20.7
2023-02-19T04:00:29.203Z,20.7
2023-02-19T04:01:45.363Z,20.6
2023-02-19T04:03:01.495Z,20.6
2023-02-19T04:04:17.620Z,20.6
2023-02-19T04:05:33.757Z,20.6
2023-02-19T04:06:49.898Z,20.6
2023-02-19T04:08:06.038Z,20.6
2023-02-19T04:09:22.179Z,20.6
2023-02-19T04:10:38.298Z,20.6
2023-02-19T04:11:54.440Z,20.6
2023-02-19T04:13:10.564Z,20.6
2023-02-19T04:14:26.710Z,20.6
2023-02-19T04:15:42.859Z,20.6
2023-02-19T04:16:58.993Z,20.6
2023-02-19T04:18:15.122Z,20.6
2023-02-19T04:19:31.253Z,20.5
2023-02-19T04:20:47.393Z,20.5
2023-02-19T04:22:03.533Z,20.5
2023-02-19T04:23:19.729Z,20.5
2023-02-19T04:24:34.970Z,20.5
2023-02-19T04:25:50.169Z,20.5
2023-02-19T04:27:06.307Z,20.5
2023-02-19T04:28:22.428Z,20.5
2023-02-19T04:29:38.580Z,20.5
2023-02-19T04:30:54.728Z,20.5
2023-02-19T04:32:10.843Z,20.5
2023-02-19T04:33:26.993Z,20.5
2023-02-19T04:34:43.113Z,20.5
2023-02-19T04:35:59.251Z,20.4
2023-02-19T04:37:15.390Z,20.4
2023-02-19T04:38:31.539Z,20.4
2023-02-19T04:39:47.657Z,20.4
2023-02-19T04:41:03.790Z,20.4
2023-02-19T04:42:19.927Z,20.4
2023-02-19T04:43:36.086Z,20.4
2023-02-19T04:44:52.209Z,20.4
2023-02-19T04:46:08.344Z,20.4
2023-02-19T04:47:24.481Z,20.4
2023-02-19T04:48:40.615Z,20.4
2023-02-19T04:49:56.766Z,20.4
2023-02-19T04:51:12.890Z,20.4
2023-02-19T04:52:29.019Z,20.4
2023-02-19T04:53:45.154Z,20.3
2023-02-19T04:55:01.301Z,20.3
2023-02-19T04:56:17.440Z,20.3
2023-02-19T04:57:33.633Z,20.3
2023-02-19T04:58:48.872Z,20.3
2023-02-19T05:00:04.076Z,20.3
2023-02-19T05:01:20.214Z,20.3
2023-02-19T05:02:36.346Z,20.3
2023-02-19T05:03:52.481Z,20.3
2023-02-19T05:05:08.608Z,20.3
2023-02-19T05:06:24.765Z,20.3
2023-02-19T05:07:40.901Z,20.3
2023-02-19T05:08:57.037Z,20.3
2023-02-19T05:10:13.167Z,20.3
2023-02-19T05:11:29.289Z,20.3
2023-02-19T05:12:45.440Z,20.2
2023-02-19T05:14:01.585Z,20.3
2023-02-19T05:15:17.711Z,20.3
2023-02-19T05:16:33.843Z,20.2
2023-02-19T05:17:49.987Z,20.2
2023-02-19T05:19:06.130Z,20.2
2023-02-19T05:20:22.268Z,20.2
2023-02-19T05:21:38.398Z,20.2
2023-02-19T05:22:54.536Z,20.2
2023-02-19T05:24:10.670Z,20.2
2023-02-19T05:25:26.810Z,20.2
2023-02-19T05:26:42.951Z,20.2
2023-02-19T05:27:59.082Z,20.2
2023-02-19T05:29:15.214Z,20.2
2023-02-19T05:30:31.348Z,20.2
2023-02-19T05:31:47.552Z,20.2
2023-02-19T05:33:02.792Z,20.2
2023-02-19T05:34:18.984Z,20.2
2023-02-19T05:35:34.196Z,20.1
2023-02-19T05:36:50.311Z,20.2
2023-02-19T05:38:06.455Z,20.1
2023-02-19T05:39:22.590Z,20.1
2023-02-19T05:40:38.717Z,20.1
2023-02-19T05:41:54.879Z,20.1
2023-02-19T05:43:10.994Z,20.1
2023-02-19T05:44:27.134Z,20.1
2023-02-19T05:45:43.260Z,20.1
2023-02-19T05:46:59.395Z,20.1
2023-02-19T05:48:15.550Z,20.1
2023-02-19T05:49:31.674Z,20.1
2023-02-19T05:50:47.808Z,20.1
2023-02-19T05:52:03.943Z,20.1
2023-02-19T05:53:20.079Z,20.1
2023-02-19T05:54:36.232Z,20.1
2023-02-19T05:55:52.364Z,20.1
2023-02-19T05:57:08.505Z,20.1
2023-02-19T05:58:24.639Z,20.1
2023-02-19T05:59:40.766Z,20.1
2023-02-19T06:00:56.916Z,20.1
2023-02-19T06:02:13.044Z,20.1
2023-02-19T06:03:29.184Z,20.1
2023-02-19T06:04:45.304Z,20.1
2023-02-19T06:06:01.447Z,20.1
2023-02-19T06:07:17.648Z,20.1
2023-02-19T06:08:32.908Z,20.1
2023-02-19T06:09:48.125Z,20
2023-02-19T06:11:04.266Z,20
2023-02-19T06:12:20.403Z,20
2023-02-19T06:13:36.523Z,20
2023-02-19T06:14:52.664Z,20
2023-02-19T06:16:08.802Z,20
2023-02-19T06:17:24.949Z,20
2023-02-19T06:18:41.069Z,20
2023-02-19T06:19:57.208Z,20
2023-02-19T06:21:13.348Z,20
2023-02-19T06:22:29.476Z,20
2023-02-19T06:23:45.631Z,20
2023-02-19T06:25:01.762Z,20
2023-02-19T06:26:17.884Z,20
2023-02-19T06:27:34.020Z,20
2023-02-19T06:28:50.160Z,20
2023-02-19T06:30:06.303Z,20
2023-02-19T06:31:22.445Z,19.9
2023-02-19T06:32:38.571Z,19.9
2023-02-19T06:33:54.705Z,19.9
2023-02-19T06:35:10.841Z,19.9
2023-02-19T06:36:26.978Z,19.9
2023-02-19T06:37:43.116Z,19.9
2023-02-19T06:38:59.244Z,19.9
2023-02-19T06:40:15.384Z,19.9
2023-02-19T06:41:31.579Z,19.9
2023-02-19T06:42:46.810Z,19.9
2023-02-19T06:44:02.016Z,19.9
2023-02-19T06:45:18.166Z,19.9
2023-02-19T06:46:34.313Z,19.9
2023-02-19T06:47:50.437Z,19.9
2023-02-19T06:49:06.562Z,19.9
2023-02-19T06:50:22.699Z,19.9
2023-02-19T06:51:38.834Z,19.9
2023-02-19T06:52:54.977Z,19.9
2023-02-19T06:54:11.120Z,19.9
2023-02-19T06:55:27.251Z,19.9
2023-02-19T06:56:43.384Z,19.9
2023-02-19T06:57:59.528Z,19.9
2023-02-19T06:59:15.666Z,19.9
2023-02-19T07:00:31.810Z,19.9
2023-02-19T07:01:47.926Z,19.9
2023-02-19T07:03:04.068Z,19.9
2023-02-19T07:04:20.192Z,19.9
2023-02-19T07:05:36.344Z,19.9
2023-02-19T07:06:52.489Z,19.9
2023-02-19T07:08:08.619Z,19.9
2023-02-19T07:09:24.000Z,19.9
2023-02-19T07:10:40.871Z,19.9
2023-02-19T07:11:57.027Z,19.9
2023-02-19T07:13:13.160Z,19.9
2023-02-19T07:14:29.287Z,19.9
2023-02-19T07:15:45.482Z,19.9
2023-02-19T07:17:00.732Z,19.9
2023-02-19T07:18:16.908Z,19.9
2023-02-19T07:19:32.116Z,19.9
2023-02-19T07:20:48.266Z,19.9
2023-02-19T07:22:04.400Z,19.9
2023-02-19T07:23:20.540Z,19.9
2023-02-19T07:24:36.667Z,19.9
2023-02-19T07:25:52.814Z,19.9
2023-02-19T07:27:08.940Z,19.9
2023-02-19T07:28:25.078Z,20
2023-02-19T07:29:41.217Z,20
2023-02-19T07:30:57.351Z,20
2023-02-19T07:32:13.492Z,20
2023-02-19T07:33:29.630Z,20
2023-02-19T07:34:45.772Z,20
2023-02-19T07:36:01.901Z,20
2023-02-19T07:37:18.032Z,20.1
2023-02-19T07:38:34.174Z,20.1
2023-02-19T07:39:50.300Z,20.1
2023-02-19T07:41:06.443Z,20.2
2023-02-19T07:42:22.573Z,20.1
2023-02-19T07:43:38.718Z,20.2
2023-02-19T07:44:54.843Z,20.2
2023-02-19T07:46:10.975Z,20.2
2023-02-19T07:47:27.131Z,20.2
2023-02-19T07:48:43.262Z,20.2
2023-02-19T07:49:59.405Z,20.2
2023-02-19T07:51:15.591Z,20.2
2023-02-19T07:52:30.835Z,20.2
2023-02-19T07:53:46.030Z,20.2
2023-02-19T07:55:01.191Z,20.2
2023-02-19T07:56:17.336Z,20.2
2023-02-19T07:57:33.462Z,20.2
2023-02-19T07:58:49.604Z,20.2
2023-02-19T08:00:05.728Z,20.3
2023-02-19T08:01:21.872Z,20.3
2023-02-19T08:02:38.011Z,20.3
2023-02-19T08:03:54.000Z,20.3
2023-02-19T08:05:10.285Z,20.3
2023-02-19T08:06:26.424Z,20.3
2023-02-19T08:07:42.550Z,20.4
2023-02-19T08:08:58.691Z,20.4
2023-02-19T08:10:14.830Z,20.4
2023-02-19T08:11:30.969Z,20.4
2023-02-19T08:12:47.094Z,20.4
2023-02-19T08:14:03.240Z,20.4
2023-02-19T08:15:19.380Z,20.4
2023-02-19T08:16:35.505Z,20.4
2023-02-19T08:17:51.644Z,20.4
2023-02-19T08:19:07.773Z,20.4
2023-02-19T08:20:23.923Z,20.4
2023-02-19T08:21:40.065Z,20.4
2023-02-19T08:22:56.204Z,20.4
2023-02-19T08:24:12.330Z,20.4
2023-02-19T08:25:28.462Z,20.4
2023-02-19T08:26:44.588Z,20.4
2023-02-19T08:28:00.741Z,20.4
2023-02-19T08:29:16.869Z,20.5
2023-02-19T08:30:33.010Z,20.5
2023-02-19T08:31:49.142Z,20.6
2023-02-19T08:33:05.282Z,20.6
2023-02-19T08:34:21.422Z,20.7
2023-02-19T08:35:37.553Z,20.7
2023-02-19T08:36:53.687Z,20.7
2023-02-19T08:38:09.823Z,20.8
2023-02-19T08:39:25.963Z,20.8
2023-02-19T08:40:42.106Z,20.9
2023-02-19T08:41:58.295Z,20.8
2023-02-19T08:43:13.539Z,20.8
2023-02-19T08:44:28.752Z,20.8
2023-02-19T08:45:44.870Z,20.9
2023-02-19T08:47:01.010Z,21
2023-02-19T08:48:17.132Z,21
2023-02-19T08:49:33.272Z,20.9
2023-02-19T08:50:49.419Z,20.9
2023-02-19T08:52:05.553Z,20.9
2023-02-19T08:53:21.680Z,20.9
2023-02-19T08:54:37.825Z,21
2023-02-19T08:55:53.952Z,20.9
2023-02-19T08:57:10.106Z,21
2023-02-19T08:58:26.229Z,21
2023-02-19T08:59:42.368Z,21
2023-02-19T09:00:58.511Z,21.1
2023-02-19T09:02:14.645Z,21.1
2023-02-19T09:03:30.784Z,21.1
2023-02-19T09:04:46.912Z,21.1
2023-02-19T09:06:03.049Z,21.2
2023-02-19T09:07:19.191Z,21.3
2023-02-19T09:08:35.319Z,21.6
2023-02-19T09:09:51.454Z,21.7
2023-02-19T09:11:07.598Z,21.9
2023-02-19T09:12:23.725Z,22
2023-02-19T09:13:39.859Z,22
2023-02-19T09:14:56.007Z,21.9
2023-02-19T09:16:12.199Z,22
2023-02-19T09:17:27.438Z,22.1
2023-02-19T09:18:42.654Z,22.4
2023-02-19T09:19:58.793Z,22.4
2023-02-19T09:21:14.917Z,22.6
2023-02-19T09:22:31.053Z,22.6
2023-02-19T09:23:47.202Z,22.7
2023-02-19T09:25:03.334Z,22.6
2023-02-19T09:26:19.468Z,22.8
2023-02-19T09:27:35.598Z,22.7
2023-02-19T09:28:51.748Z,22.6
2023-02-19T09:30:07.867Z,22.6
2023-02-19T09:31:24.007Z,22.5
2023-02-19T09:32:40.159Z,22.5
2023-02-19T09:33:56.298Z,22.7
2023-02-19T09:35:12.433Z,23.2
2023-02-19T09:36:28.551Z,23.1
2023-02-19T09:37:44.698Z,23
2023-02-19T09:39:00.829Z,23
2023-02-19T09:40:16.968Z,22.9
2023-02-19T09:41:33.098Z,22.9
2023-02-19T09:42:49.230Z,22.9
2023-02-19T09:44:05.380Z,22.8
2023-02-19T09:45:21.526Z,22.8
2023-02-19T09:46:37.646Z,23
2023-02-19T09:47:53.795Z,23.1
2023-02-19T09:49:09.927Z,23.2
2023-02-19T09:50:26.115Z,23.2
2023-02-19T09:51:41.358Z,23.3
2023-02-19T09:52:57.535Z,23.6
2023-02-19T09:54:12.740Z,23.7
2023-02-19T09:55:28.887Z,23.5
2023-02-19T09:56:45.031Z,23.4
2023-02-19T09:58:01.156Z,23.3
2023-02-19T09:59:17.302Z,23.2
2023-02-19T10:00:33.432Z,23.3
2023-02-19T10:01:49.572Z,23.6
2023-02-19T10:03:05.699Z,23.8
2023-02-19T10:04:21.838Z,24
2023-02-19T10:05:37.962Z,24.2
2023-02-19T10:06:54.110Z,24
2023-02-19T10:08:10.280Z,23.9
2023-02-19T10:09:26.386Z,23.8
2023-02-19T10:10:42.528Z,23.7
2023-02-19T10:11:58.659Z,23.7
2023-02-19T10:13:14.793Z,23.7
2023-02-19T10:14:30.942Z,23.8
2023-02-19T10:15:47.068Z,23.7
2023-02-19T10:17:03.197Z,23.9
2023-02-19T10:18:19.343Z,24.1
2023-02-19T10:19:35.463Z,24.4
2023-02-19T10:20:51.607Z,24.7
2023-02-19T10:22:07.745Z,24.8
2023-02-19T10:23:23.891Z,24.7
2023-02-19T10:24:40.019Z,24.5
2023-02-19T10:25:56.204Z,24.3
2023-02-19T10:27:11.465Z,24.3
2023-02-19T10:28:26.683Z,24.2
2023-02-19T10:29:42.807Z,24.4
2023-02-19T10:30:58.962Z,24.7
2023-02-19T10:32:15.083Z,24.7
2023-02-19T10:33:31.218Z,24.7
2023-02-19T10:34:47.356Z,24.5
2023-02-19T10:36:03.487Z,24.3
2023-02-19T10:37:19.637Z,24.5
2023-02-19T10:38:35.776Z,24.7
2023-02-19T10:39:51.908Z,24.9
2023-02-19T10:41:08.041Z,25.1
2023-02-19T10:42:24.174Z,25.5
2023-02-19T10:43:40.326Z,25.9
2023-02-19T10:44:56.450Z,26.1
2023-02-19T10:46:12.593Z,26.3
2023-02-19T10:47:28.712Z,26.2
2023-02-19T10:48:44.859Z,26
2023-02-19T10:50:01.010Z,25.8
2023-02-19T10:51:17.130Z,25.6
2023-02-19T10:52:33.269Z,25.5
2023-02-19T10:53:49.404Z,25.5
2023-02-19T10:55:05.537Z,25.8
2023-02-19T10:56:21.685Z,26.1
2023-02-19T10:57:37.827Z,26.4
2023-02-19T10:58:53.944Z,26.6
2023-02-19T11:00:10.154Z,26.6
2023-02-19T11:01:25.380Z,26.6
2023-02-19T11:02:40.585Z,26.5
2023-02-19T11:03:55.739Z,26.5
2023-02-19T11:05:11.898Z,26.3
2023-02-19T11:06:28.013Z,26.2
2023-02-19T11:07:44.146Z,26
2023-02-19T11:09:00.280Z,25.9
2023-02-19T11:10:16.427Z,25.7
2023-02-19T11:11:32.574Z,25.5
2023-02-19T11:12:48.702Z,25.6
2023-02-19T11:14:04.838Z,25.9
2023-02-19T11:15:20.965Z,26
2023-02-19T11:16:37.106Z,26.2
2023-02-19T11:17:53.257Z,26.4
2023-02-19T11:19:09.380Z,26.7
2023-02-19T11:20:25.511Z,26.9
2023-02-19T11:21:41.649Z,27
2023-02-19T11:22:57.793Z,27.2
2023-02-19T11:24:13.940Z,27.1
2023-02-19T11:25:30.070Z,26.9
2023-02-19T11:26:46.208Z,26.5
2023-02-19T11:28:02.332Z,26.3
2023-02-19T11:29:18.474Z,26.1
2023-02-19T11:30:34.612Z,26.2
2023-02-19T11:31:50.755Z,26.1
2023-02-19T11:33:06.889Z,25.9
2023-02-19T11:34:23.024Z,26.2
2023-02-19T11:35:39.153Z,26.4
2023-02-19T11:36:55.297Z,26.6
2023-02-19T11:38:11.417Z,26.7
2023-02-19T11:39:27.569Z,26.8
2023-02-19T11:40:43.704Z,26.9
2023-02-19T11:41:59.818Z,26.9
2023-02-19T11:43:15.983Z,26.8
2023-02-19T11:44:32.104Z,26.6
2023-02-19T11:45:48.249Z,26.4
2023-02-19T11:47:04.369Z,26.3
2023-02-19T11:48:20.506Z,26.3
2023-02-19T11:49:36.659Z,26.1
2023-02-19T11:50:52.858Z,26
2023-02-19T11:52:08.100Z,26
2023-02-19T11:53:23.308Z,25.9
2023-02-19T11:54:39.437Z,25.8
2023-02-19T11:55:55.558Z,25.8
2023-02-19T11:57:11.702Z,25.8
2023-02-19T11:58:27.830Z,25.6
2023-02-19T11:59:43.985Z,25.6
2023-02-19T12:01:00.126Z,25.5
2023-02-19T12:02:16.241Z,25.3
2023-02-19T12:03:32.383Z,25.3
2023-02-19T12:04:48.519Z,25.2
2023-02-19T12:06:04.660Z,25.1
2023-02-19T12:07:20.801Z,25
2023-02-19T12:08:36.923Z,24.9
2023-02-19T12:09:53.076Z,24.8
2023-02-19T12:11:09.192Z,24.7
2023-02-19T12:12:25.351Z,24.6
2023-02-19T12:13:41.490Z,24.6
2023-02-19T12:14:57.621Z,24.6
2023-02-19T12:16:13.752Z,24.6
2023-02-19T12:17:29.872Z,24.6
2023-02-19T12:18:46.027Z,24.6
2023-02-19T12:20:02.163Z,24.6
2023-02-19T12:21:18.291Z,24.5
2023-02-19T12:22:34.431Z,24.5
2023-02-19T12:23:50.567Z,24.5
2023-02-19T12:25:06.779Z,24.4
2023-02-19T12:26:22.006Z,24.4
2023-02-19T12:28:54.401Z,24.4
2023-02-19T12:30:09.604Z,24.3
2023-02-19T12:31:25.723Z,24.3
2023-02-19T12:32:41.856Z,24.3
2023-02-19T12:33:57.996Z,24.3
2023-02-19T12:35:14.149Z,24.3
2023-02-19T12:36:30.279Z,24.3
2023-02-19T12:37:46.410Z,24.2
2023-02-19T12:39:02.545Z,24.2
2023-02-19T12:40:18.689Z,24.1
2023-02-19T12:41:34.827Z,24.1
2023-02-19T12:42:50.964Z,24
2023-02-19T12:44:07.089Z,23.9
2023-02-19T12:45:23.223Z,23.9
2023-02-19T12:46:39.351Z,23.8
2023-02-19T12:47:55.511Z,23.8
2023-02-19T12:49:11.643Z,23.7
2023-02-19T12:50:27.772Z,23.7
2023-02-19T12:51:43.916Z,23.7
2023-02-19T12:53:00.046Z,23.7
2023-02-19T12:54:16.196Z,23.7
2023-02-19T12:55:32.327Z,23.7
2023-02-19T12:56:48.459Z,23.7
2023-02-19T12:58:04.587Z,23.7
2023-02-19T12:59:20.734Z,23.7
2023-02-19T13:00:36.863Z,23.7
2023-02-19T13:01:53.072Z,23.6
2023-02-19T13:03:08.282Z,23.6
2023-02-19T13:04:24.405Z,23.6
2023-02-19T13:05:40.554Z,23.6
2023-02-19T13:06:56.696Z,23.5
2023-02-19T13:08:12.826Z,23.5
2023-02-19T13:09:28.962Z,23.5
2023-02-19T13:10:45.090Z,23.5
2023-02-19T13:12:01.231Z,23.5
2023-02-19T13:13:17.370Z,23.5
2023-02-19T13:14:33.507Z,23.5
2023-02-19T13:15:49.625Z,23.4
2023-02-19T13:17:05.768Z,23.5
2023-02-19T13:18:21.917Z,23.4
2023-02-19T13:19:38.044Z,23.4
2023-02-19T13:20:54.174Z,23.4
2023-02-19T13:22:10.317Z,23.4
2023-02-19T13:23:26.446Z,23.4
2023-02-19T13:24:42.589Z,23.3
2023-02-19T13:25:58.722Z,23.3
2023-02-19T13:27:14.866Z,23.3
2023-02-19T13:28:31.005Z,23.3
2023-02-19T13:29:47.122Z,23.2
2023-02-19T13:31:03.278Z,23.2
2023-02-19T13:32:19.419Z,23.2
2023-02-19T13:33:35.539Z,23.2
2023-02-19T13:34:51.728Z,23.1
2023-02-19T13:36:06.972Z,23.1
2023-02-19T13:37:22.184Z,23.1
2023-02-19T13:38:37.333Z,23
2023-02-19T13:39:53.481Z,23
2023-02-19T13:41:09.608Z,23
2023-02-19T13:42:25.745Z,23
2023-02-19T13:43:41.885Z,23
2023-02-19T13:44:58.001Z,23
2023-02-19T13:46:14.164Z,22.9
2023-02-19T13:47:30.294Z,22.9
2023-02-19T13:48:46.426Z,22.9
2023-02-19T13:50:02.557Z,22.9
2023-02-19T13:51:18.693Z,22.8
2023-02-19T13:52:34.842Z,22.8
2023-02-19T13:53:50.000Z,22.8
2023-02-19T13:55:07.104Z,22.7
2023-02-19T13:56:23.234Z,22.7
2023-02-19T13:57:39.379Z,22.6
2023-02-19T13:58:55.529Z,22.6
2023-02-19T14:00:11.655Z,22.5
2023-02-19T14:01:27.776Z,22.5
2023-02-19T14:02:43.913Z,22.4
2023-02-19T14:04:00.050Z,22.4
2023-02-19T14:05:16.205Z,22.3
2023-02-19T14:06:32.337Z,22.3
2023-02-19T14:07:48.462Z,22.2
2023-02-19T14:09:04.593Z,22.2
2023-02-19T14:10:20.739Z,22.1
2023-02-19T14:11:36.874Z,22.1
2023-02-19T14:12:53.019Z,22
2023-02-19T14:14:09.141Z,22
2023-02-19T14:15:25.290Z,22
2023-02-19T14:16:41.415Z,21.9
2023-02-19T14:17:57.568Z,21.9
2023-02-19T14:19:13.692Z,21.9
2023-02-19T14:20:29.839Z,21.8
2023-02-19T14:21:45.959Z,21.8
2023-02-19T14:23:02.100Z,21.8
2023-02-19T14:24:18.249Z,21.7
2023-02-19T14:25:34.438Z,21.7
2023-02-19T14:26:49.686Z,21.7
2023-02-19T14:28:04.890Z,21.7
2023-02-19T14:29:21.011Z,21.7
2023-02-19T14:30:37.157Z,21.7
2023-02-19T14:31:53.288Z,21.7
2023-02-19T14:33:09.412Z,21.7
2023-02-19T14:34:25.569Z,21.6
2023-02-19T14:35:41.706Z,21.6
2023-02-19T14:36:57.827Z,21.6
2023-02-19T14:38:13.970Z,21.6
2023-02-19T14:39:30.105Z,21.6
2023-02-19T14:40:46.240Z,21.5
2023-02-19T14:42:02.386Z,21.5
2023-02-19T14:43:18.522Z,21.5
2023-02-19T14:44:34.639Z,21.5
2023-02-19T14:45:50.788Z,21.5
2023-02-19T14:47:06.933Z,21.5
2023-02-19T14:48:23.068Z,21.4
2023-02-19T14:49:39.203Z,21.4
2023-02-19T14:50:55.330Z,21.4
2023-02-19T14:52:11.459Z,21.4
2023-02-19T14:53:27.606Z,21.3
2023-02-19T14:54:43.750Z,21.3
2023-02-19T14:55:59.886Z,21.3
2023-02-19T14:57:16.004Z,21.3
2023-02-19T14:58:32.145Z,21.3
2023-02-19T14:59:48.359Z,21.3
2023-02-19T15:01:03.604Z,21.3
2023-02-19T15:02:19.804Z,21.3
2023-02-19T15:03:35.001Z,21.3
2023-02-19T15:04:51.148Z,21.3
2023-02-19T15:06:07.284Z,21.2
2023-02-19T15:07:23.400Z,21.2
2023-02-19T15:08:39.543Z,21.2
2023-02-19T15:09:55.695Z,21.2
2023-02-19T15:11:11.826Z,21.2
2023-02-19T15:12:27.948Z,21.2
2023-02-19T15:13:44.086Z,21.2
2023-02-19T15:15:00.229Z,21.2
2023-02-19T15:16:16.378Z,21.2
2023-02-19T15:17:32.506Z,21.2
2023-02-19T15:18:48.629Z,21.2
2023-02-19T15:20:04.761Z,21.2
2023-02-19T15:21:20.897Z,21.1
2023-02-19T15:22:37.055Z,21.1
2023-02-19T15:23:53.189Z,21.1
2023-02-19T15:25:09.323Z,21.1
2023-02-19T15:26:25.458Z,21.1
2023-02-19T15:27:41.587Z,21.1
2023-02-19T15:28:57.740Z,21.1
2023-02-19T15:30:13.870Z,21
2023-02-19T15:31:29.991Z,21
2023-02-19T15:32:46.132Z,21
2023-02-19T15:34:02.262Z,21
2023-02-19T15:35:18.463Z,21
2023-02-19T15:36:33.722Z,21
2023-02-19T15:37:48.922Z,20.9
2023-02-19T15:39:05.062Z,20.9
2023-02-19T15:40:21.202Z,20.9
2023-02-19T15:41:37.335Z,20.9
2023-02-19T15:42:53.457Z,20.9
2023-02-19T15:44:09.604Z,20.9
2023-02-19T15:45:25.742Z,20.9
2023-02-19T15:46:41.875Z,20.9
2023-02-19T15:47:58.008Z,20.8
2023-02-19T15:49:14.132Z,20.8
2023-02-19T15:50:30.279Z,20.8
2023-02-19T15:51:46.417Z,20.8
2023-02-19T15:53:02.564Z,20.8
2023-02-19T15:54:18.683Z,20.8
2023-02-19T15:55:34.813Z,20.8
2023-02-19T15:56:50.955Z,20.7
2023-02-19T15:58:07.108Z,20.8
2023-02-19T15:59:23.229Z,20.8
2023-02-19T16:00:39.373Z,20.7
2023-02-19T16:01:55.501Z,20.7
2023-02-19T16:03:11.634Z,20.7
2023-02-19T16:04:27.782Z,20.7
2023-02-19T16:05:43.914Z,20.7
2023-02-19T16:07:00.045Z,20.7
2023-02-19T16:08:16.183Z,20.7
2023-02-19T16:09:32.372Z,20.7
2023-02-19T16:10:47.610Z,20.7
2023-02-19T16:12:02.829Z,20.7
2023-02-19T16:13:18.964Z,20.6
2023-02-19T16:14:35.097Z,20.6
2023-02-19T16:15:51.239Z,20.6
2023-02-19T16:17:07.375Z,20.6
2023-02-19T16:18:23.500Z,20.6
2023-02-19T16:19:39.630Z,20.6
2023-02-19T16:20:55.775Z,20.6
2023-02-19T16:22:11.913Z,20.6
2023-02-19T16:23:28.049Z,20.5
2023-02-19T16:24:44.189Z,20.5
2023-02-19T16:26:00.321Z,20.5
2023-02-19T16:27:16.466Z,20.5
2023-02-19T16:28:32.600Z,20.5
2023-02-19T16:29:48.737Z,20.5
2023-02-19T16:31:04.853Z,20.5
2023-02-19T16:32:20.992Z,20.5
2023-02-19T16:33:37.144Z,20.4
2023-02-19T16:34:53.271Z,20.4
2023-02-19T16:36:09.419Z,20.4
2023-02-19T16:37:25.538Z,20.4
2023-02-19T16:38:41.676Z,20.4
2023-02-19T16:39:57.821Z,20.4
2023-02-19T16:41:13.949Z,20.4
2023-02-19T16:42:30.092Z,20.4
2023-02-19T16:43:46.278Z,20.4
2023-02-19T16:45:01.511Z,20.4
2023-02-19T16:46:17.704Z,20.4
2023-02-19T16:47:32.917Z,20.4
2023-02-19T16:48:49.056Z,20.3
2023-02-19T16:50:05.191Z,20.3
2023-02-19T16:51:21.338Z,20.3
2023-02-19T16:52:37.457Z,20.3
2023-02-19T16:53:53.595Z,20.3
2023-02-19T16:55:09.733Z,20.3
2023-02-19T16:56:25.887Z,20.3
2023-02-19T16:57:42.021Z,20.3
2023-02-19T16:58:58.154Z,20.3